createdAt,value
2018-09-26T00:01:00.652Z,48.60
2018-09-26T00:03:34.789Z,48.60
2018-09-26T00:06:03.376Z,48.40
2018-09-26T00:08:32.030Z,48.60
2018-09-26T00:11:00.628Z,48.70
2018-09-26T00:13:29.160Z,48.60
2018-09-26T00:15:57.798Z,48.40
2018-09-26T00:18:26.463Z,48.50
2018-09-26T00:20:55.175Z,48.60
2018-09-26T00:23:23.863Z,49.20
2018-09-26T00:25:52.437Z,48.40
2018-09-26T00:28:21.010Z,48.50
2018-09-26T00:30:49.581Z,48.30
2018-09-26T00:33:18.164Z,48.60
2018-09-26T00:35:46.795Z,48.40
2018-09-26T00:38:15.483Z,48.40
2018-09-26T00:40:44.031Z,48.30
2018-09-26T00:43:12.540Z,48.60
2018-09-26T00:45:41.240Z,48.30
2018-09-26T00:48:09.885Z,48.20
2018-09-26T00:50:38.742Z,48.10
2018-09-26T00:53:07.334Z,48.30
2018-09-26T00:55:35.838Z,48.20
2018-09-26T00:58:04.566Z,48.20
2018-09-26T01:00:33.129Z,48.30
2018-09-26T01:03:01.784Z,48.60
2018-09-26T01:05:30.484Z,48.20
2018-09-26T01:07:59.053Z,48.30
2018-09-26T01:10:27.650Z,48.40
2018-09-26T01:12:56.216Z,48.50
2018-09-26T01:15:24.820Z,48.30
2018-09-26T01:17:53.361Z,48.60
2018-09-26T01:20:21.937Z,48.60
2018-09-26T01:22:50.829Z,48.40
2018-09-26T01:25:19.379Z,48.60
2018-09-26T01:27:47.980Z,48.30
2018-09-26T01:30:16.658Z,48.60
2018-09-26T01:32:45.150Z,48.50
2018-09-26T01:35:13.706Z,48.50
2018-09-26T01:37:42.244Z,48.60
2018-09-26T01:40:10.860Z,48.70
2018-09-26T01:42:39.401Z,48.60
2018-09-26T01:45:08.080Z,48.60
2018-09-26T01:47:36.688Z,48.50
2018-09-26T01:50:05.301Z,48.70
2018-09-26T01:52:33.984Z,48.60
2018-09-26T01:55:02.661Z,48.50
2018-09-26T01:57:31.379Z,48.60
2018-09-26T01:59:59.919Z,48.40
2018-09-26T02:02:28.653Z,48.40
2018-09-26T02:04:57.197Z,48.70
2018-09-26T02:07:25.754Z,48.20
2018-09-26T02:09:54.352Z,48.40
2018-09-26T02:12:22.923Z,48.50
2018-09-26T02:14:51.490Z,48.40
2018-09-26T02:17:20.105Z,48.30
2018-09-26T02:19:48.635Z,48.30
2018-09-26T02:22:17.399Z,48.50
2018-09-26T02:24:46.096Z,48.30
2018-09-26T02:27:14.738Z,48.40
2018-09-26T02:29:43.283Z,48.40
2018-09-26T02:32:11.862Z,48.40
2018-09-26T02:34:40.429Z,48.30
2018-09-26T02:37:09.557Z,48.50
2018-09-26T02:39:39.364Z,49.20
2018-09-26T02:42:08.015Z,48.60
2018-09-26T02:44:36.948Z,48.60
2018-09-26T02:47:05.500Z,48.30
2018-09-26T02:49:34.072Z,48.30
2018-09-26T02:52:02.639Z,48.50
2018-09-26T02:54:31.244Z,48.30
2018-09-26T02:57:00.005Z,48.30
2018-09-26T02:59:28.717Z,48.40
2018-09-26T03:01:57.544Z,48.60
2018-09-26T03:04:26.116Z,48.30
2018-09-26T03:06:54.724Z,48.40
2018-09-26T03:09:24.077Z,48.20
2018-09-26T03:11:52.707Z,48.30
2018-09-26T03:14:21.281Z,48.30
2018-09-26T03:16:49.911Z,48.30
2018-09-26T03:19:19.125Z,48.20
2018-09-26T03:21:47.708Z,48.30
2018-09-26T03:24:16.356Z,48.30
2018-09-26T03:26:44.912Z,48.60
2018-09-26T03:29:13.483Z,48.20
2018-09-26T03:31:42.027Z,48.20
2018-09-26T03:34:10.614Z,48.40
2018-09-26T03:36:39.240Z,48.70
2018-09-26T03:39:08.452Z,48.50
2018-09-26T03:41:36.985Z,48.40
2018-09-26T03:44:05.555Z,48.50
2018-09-26T03:46:34.135Z,48.40
2018-09-26T03:49:02.717Z,48.40
2018-09-26T03:51:31.269Z,48.40
2018-09-26T03:53:59.816Z,48.00
2018-09-26T03:56:28.412Z,47.80
2018-09-26T03:58:57.093Z,47.90
2018-09-26T04:01:25.691Z,47.70
2018-09-26T04:03:54.705Z,47.80
2018-09-26T04:06:23.297Z,47.00
2018-09-26T04:08:51.848Z,47.20
2018-09-26T04:11:20.584Z,47.10
2018-09-26T04:13:49.244Z,47.20
2018-09-26T04:16:17.935Z,47.00
2018-09-26T04:18:47.069Z,47.10
2018-09-26T04:21:15.665Z,48.00
2018-09-26T04:23:44.181Z,47.20
2018-09-26T04:26:13.025Z,47.60
2018-09-26T04:28:41.420Z,47.50
2018-09-26T04:31:10.054Z,47.10
2018-09-26T04:33:38.694Z,47.80
2018-09-26T04:36:07.266Z,46.90
2018-09-26T04:38:36.199Z,47.10
2018-09-26T04:41:04.818Z,46.80
2018-09-26T04:43:33.572Z,46.80
2018-09-26T04:46:02.163Z,46.90
2018-09-26T04:48:31.263Z,46.40
2018-09-26T04:50:59.775Z,46.40
2018-09-26T04:53:28.436Z,46.10
2018-09-26T04:55:56.928Z,46.50
2018-09-26T04:58:25.589Z,46.20
2018-09-26T05:00:54.141Z,46.10
2018-09-26T05:03:22.794Z,45.90
2018-09-26T05:05:51.325Z,45.80
2018-09-26T05:08:20.880Z,45.60
2018-09-26T05:10:49.464Z,45.80
2018-09-26T05:13:18.031Z,45.50
2018-09-26T05:15:46.631Z,45.30
2018-09-26T05:18:15.218Z,45.40
2018-09-26T05:20:43.870Z,45.40
2018-09-26T05:23:12.794Z,45.10
2018-09-26T05:25:41.534Z,45.10
2018-09-26T05:28:10.597Z,44.90
2018-09-26T05:30:39.139Z,44.60
2018-09-26T05:33:07.946Z,44.70
2018-09-26T05:35:36.690Z,44.80
2018-09-26T05:38:05.466Z,44.50
2018-09-26T05:40:34.189Z,44.60
2018-09-26T05:43:02.868Z,44.40
2018-09-26T05:45:31.437Z,44.60
2018-09-26T05:48:00.348Z,44.40
2018-09-26T05:50:29.217Z,44.60
2018-09-26T05:52:57.804Z,44.30
2018-09-26T05:55:26.400Z,44.20
2018-09-26T05:57:55.201Z,44.40
2018-09-26T06:00:23.788Z,44.20
2018-09-26T06:02:52.369Z,44.10
2018-09-26T06:05:20.963Z,44.30
2018-09-26T06:07:49.516Z,44.10
2018-09-26T06:10:18.207Z,43.90
2018-09-26T06:12:46.961Z,44.00
2018-09-26T06:15:15.538Z,44.10
2018-09-26T06:17:44.173Z,44.00
2018-09-26T06:20:12.819Z,43.90
2018-09-26T06:22:42.531Z,44.00
2018-09-26T06:25:11.389Z,44.10
2018-09-26T06:27:39.942Z,44.20
2018-09-26T06:30:09.329Z,43.80
2018-09-26T06:32:38.516Z,44.40
2018-09-26T06:35:07.518Z,43.70
2018-09-26T06:37:36.078Z,43.30
2018-09-26T06:40:04.804Z,43.20
2018-09-26T06:42:33.368Z,43.30
2018-09-26T06:45:01.939Z,43.40
2018-09-26T06:47:30.547Z,43.20
2018-09-26T06:49:59.106Z,43.70
2018-09-26T06:52:27.645Z,43.00
2018-09-26T06:54:56.224Z,43.10
2018-09-26T06:57:24.766Z,43.30
2018-09-26T06:59:53.376Z,43.20
2018-09-26T07:02:22.539Z,43.20
2018-09-26T07:04:51.163Z,43.20
2018-09-26T07:07:20.311Z,43.10
2018-09-26T07:09:48.971Z,43.10
2018-09-26T07:12:24.386Z,43.20
2018-09-26T07:14:53.078Z,43.20
2018-09-26T07:17:21.876Z,43.10
2018-09-26T07:19:50.763Z,43.10
2018-09-26T07:22:19.504Z,42.90
2018-09-26T07:24:48.252Z,43.20
2018-09-26T07:27:16.912Z,43.00
2018-09-26T07:29:45.701Z,43.00
2018-09-26T07:32:14.479Z,43.00
2018-09-26T07:34:43.178Z,42.80
2018-09-26T07:37:11.865Z,43.10
2018-09-26T07:39:41.321Z,42.80
2018-09-26T07:42:10.043Z,43.00
2018-09-26T07:44:39.441Z,42.80
2018-09-26T07:47:08.209Z,42.80
2018-09-26T07:49:37.034Z,43.00
2018-09-26T07:52:05.679Z,42.90
2018-09-26T07:54:35.260Z,42.60
2018-09-26T07:57:03.926Z,42.70
2018-09-26T07:59:32.652Z,42.90
2018-09-26T08:02:01.901Z,42.40
2018-09-26T08:04:31.023Z,41.90
2018-09-26T08:06:59.587Z,42.10
2018-09-26T08:09:28.220Z,42.10
2018-09-26T08:11:56.901Z,41.60
2018-09-26T08:14:26.117Z,41.70
2018-09-26T08:16:54.694Z,41.50
2018-09-26T08:19:23.289Z,41.70
2018-09-26T08:21:52.031Z,41.70
2018-09-26T08:24:21.776Z,41.70
2018-09-26T08:26:50.340Z,41.90
2018-09-26T08:29:19.466Z,42.00
2018-09-26T08:31:49.080Z,42.00
2018-09-26T08:34:18.224Z,41.90
2018-09-26T08:36:46.806Z,42.00
2018-09-26T08:39:15.366Z,41.70
2018-09-26T08:41:44.076Z,41.90
2018-09-26T08:44:12.752Z,41.80
2018-09-26T08:46:41.640Z,41.30
2018-09-26T08:49:10.468Z,41.10
2018-09-26T08:51:39.120Z,41.10
2018-09-26T08:54:08.739Z,41.10
2018-09-26T08:56:37.416Z,40.90
2018-09-26T08:59:06.312Z,40.80
2018-09-26T09:01:40.295Z,40.90
2018-09-26T09:04:09.271Z,40.40
2018-09-26T09:06:38.432Z,40.50
2018-09-26T09:09:08.113Z,40.40
2018-09-26T09:11:38.022Z,40.50
2018-09-26T09:14:06.977Z,40.50
2018-09-26T09:16:36.757Z,40.10
2018-09-26T09:19:07.019Z,40.40
2018-09-26T09:21:36.109Z,39.80
2018-09-26T09:24:04.686Z,39.70
2018-09-26T09:26:33.236Z,39.60
2018-09-26T09:29:01.887Z,39.40
2018-09-26T09:31:30.408Z,38.90
2018-09-26T09:33:58.966Z,38.90
2018-09-26T09:36:27.733Z,39.00
2018-09-26T09:38:57.080Z,38.80
2018-09-26T09:41:25.606Z,38.60
2018-09-26T09:43:54.641Z,38.80
2018-09-26T09:46:23.277Z,38.60
2018-09-26T09:48:51.870Z,38.00
2018-09-26T09:51:20.564Z,37.80
2018-09-26T09:53:50.692Z,37.50
2018-09-26T09:56:19.426Z,37.40
2018-09-26T09:58:48.085Z,37.80
2018-09-26T10:01:26.099Z,37.00
2018-09-26T10:03:55.161Z,37.20
2018-09-26T10:06:23.723Z,37.30
2018-09-26T10:08:52.485Z,37.40
2018-09-26T10:11:21.272Z,37.50
2018-09-26T10:13:49.897Z,37.20
2018-09-26T10:16:18.569Z,37.30
2018-09-26T10:18:47.161Z,37.20
2018-09-26T10:21:15.844Z,37.20
2018-09-26T10:23:44.390Z,37.10
2018-09-26T10:26:12.945Z,36.60
2018-09-26T10:28:41.909Z,36.60
2018-09-26T10:31:10.656Z,35.90
2018-09-26T10:33:39.220Z,36.00
2018-09-26T10:36:07.817Z,36.10
2018-09-26T10:38:36.391Z,35.50
2018-09-26T10:41:05.066Z,35.90
2018-09-26T10:43:33.680Z,35.90
2018-09-26T10:46:02.429Z,35.10
2018-09-26T10:48:31.333Z,35.10
2018-09-26T10:50:59.927Z,35.20
2018-09-26T10:53:28.564Z,34.90
2018-09-26T10:55:57.081Z,35.00
2018-09-26T10:58:26.249Z,35.00
2018-09-26T11:00:54.914Z,35.10
2018-09-26T11:03:23.576Z,35.20
2018-09-26T11:05:52.249Z,35.40
2018-09-26T11:08:21.035Z,35.10
2018-09-26T11:10:50.229Z,35.40
2018-09-26T11:13:18.919Z,34.50
2018-09-26T11:15:47.500Z,34.80
2018-09-26T11:18:16.082Z,34.80
2018-09-26T11:20:44.612Z,34.90
2018-09-26T11:23:14.149Z,34.50
2018-09-26T11:25:42.808Z,35.10
2018-09-26T11:28:11.418Z,35.30
2018-09-26T11:30:39.870Z,34.70
2018-09-26T11:33:08.628Z,35.30
2018-09-26T11:35:37.136Z,34.80
2018-09-26T11:38:05.709Z,34.90
2018-09-26T11:40:34.333Z,35.40
2018-09-26T11:43:02.816Z,34.90
2018-09-26T11:45:31.313Z,35.10
2018-09-26T11:47:59.821Z,35.00
2018-09-26T11:50:29.045Z,34.30
2018-09-26T11:52:57.663Z,34.20
2018-09-26T11:55:26.235Z,34.20
2018-09-26T11:57:54.845Z,34.00
2018-09-26T12:00:23.486Z,34.00
2018-09-26T12:02:51.999Z,33.90
2018-09-26T12:05:20.588Z,33.90
2018-09-26T12:07:49.530Z,34.20
2018-09-26T12:10:18.117Z,33.60
2018-09-26T12:12:46.595Z,33.20
2018-09-26T12:15:16.668Z,32.70
2018-09-26T12:17:45.359Z,33.00
2018-09-26T12:20:13.918Z,33.00
2018-09-26T12:22:42.563Z,32.50
2018-09-26T12:25:11.032Z,31.70
2018-09-26T12:27:39.634Z,31.60
2018-09-26T12:30:08.859Z,30.90
2018-09-26T12:32:37.733Z,31.30
2018-09-26T12:35:06.748Z,30.60
2018-09-26T12:37:35.282Z,30.60
2018-09-26T12:40:06.687Z,30.50
2018-09-26T12:42:35.359Z,30.50
2018-09-26T12:45:03.936Z,30.20
2018-09-26T12:47:32.491Z,29.90
2018-09-26T12:50:01.716Z,29.80
2018-09-26T12:52:30.344Z,29.50
2018-09-26T12:54:58.952Z,29.40
2018-09-26T12:57:27.784Z,29.30
2018-09-26T12:59:57.228Z,29.50
2018-09-26T13:02:25.939Z,29.20
2018-09-26T13:04:54.386Z,29.00
2018-09-26T13:07:22.929Z,28.80
2018-09-26T13:09:51.473Z,28.70
2018-09-26T13:12:20.289Z,28.60
2018-09-26T13:14:49.062Z,28.30
2018-09-26T13:17:17.569Z,28.70
2018-09-26T13:19:46.152Z,28.50
2018-09-26T13:22:15.201Z,28.10
2018-09-26T13:24:44.324Z,28.10
2018-09-26T13:27:12.876Z,28.10
2018-09-26T13:29:41.378Z,28.10
2018-09-26T13:32:09.946Z,28.30
2018-09-26T13:34:38.680Z,28.20
2018-09-26T13:37:07.171Z,28.20
2018-09-26T13:39:35.919Z,28.20
2018-09-26T13:42:06.033Z,28.30
2018-09-26T13:44:34.533Z,28.40
2018-09-26T13:47:03.365Z,28.50
2018-09-26T13:49:32.001Z,28.40
2018-09-26T13:52:00.799Z,28.50
2018-09-26T13:54:29.435Z,28.40
2018-09-26T13:56:57.918Z,28.40
2018-09-26T13:59:26.551Z,28.20
2018-09-26T14:01:55.072Z,28.40
2018-09-26T14:04:23.717Z,28.40
2018-09-26T14:06:52.169Z,28.40
2018-09-26T14:09:20.699Z,28.60
2018-09-26T14:11:49.404Z,28.00
2018-09-26T14:14:18.084Z,27.70
2018-09-26T14:16:46.692Z,27.80
2018-09-26T14:19:15.252Z,28.00
2018-09-26T14:21:44.719Z,28.10
2018-09-26T14:24:13.305Z,27.90
2018-09-26T14:26:41.860Z,28.10
2018-09-26T14:29:10.653Z,28.40
2018-09-26T14:31:39.168Z,28.50
2018-09-26T14:34:07.783Z,28.00
2018-09-26T14:36:37.105Z,28.30
2018-09-26T14:39:07.620Z,28.60
2018-09-26T14:41:36.354Z,28.20
2018-09-26T14:44:04.971Z,28.00
2018-09-26T14:46:33.566Z,28.10
2018-09-26T14:49:02.176Z,27.90
2018-09-26T14:51:30.804Z,28.00
2018-09-26T14:53:59.824Z,28.10
2018-09-26T14:56:28.865Z,28.20
2018-09-26T14:58:57.494Z,27.80
2018-09-26T15:01:26.216Z,27.80
2018-09-26T15:03:55.163Z,27.70
2018-09-26T15:06:23.760Z,27.60
2018-09-26T15:08:53.414Z,27.70
2018-09-26T15:11:22.542Z,27.60
2018-09-26T15:13:51.101Z,27.60
2018-09-26T15:16:19.754Z,28.20
2018-09-26T15:18:48.572Z,27.70
2018-09-26T15:21:17.248Z,27.60
2018-09-26T15:23:45.793Z,27.20
2018-09-26T15:26:14.795Z,27.10
2018-09-26T15:28:44.071Z,27.20
2018-09-26T15:31:12.732Z,27.30
2018-09-26T15:33:41.403Z,27.40
2018-09-26T15:36:10.695Z,27.50
2018-09-26T15:38:39.246Z,27.40
2018-09-26T15:41:08.684Z,27.30
2018-09-26T15:43:37.236Z,27.40
2018-09-26T15:46:05.818Z,27.60
2018-09-26T15:48:34.591Z,27.60
2018-09-26T15:51:03.910Z,27.70
2018-09-26T15:53:32.790Z,27.90
2018-09-26T15:56:01.684Z,28.00
2018-09-26T15:58:30.282Z,28.10
2018-09-26T16:00:58.897Z,27.80
2018-09-26T16:03:27.441Z,28.00
2018-09-26T16:05:56.198Z,28.10
2018-09-26T16:08:25.128Z,28.30
2018-09-26T16:10:53.652Z,28.20
2018-09-26T16:13:22.217Z,28.60
2018-09-26T16:15:50.773Z,28.70
2018-09-26T16:18:19.450Z,28.50
2018-09-26T16:20:47.945Z,28.40
2018-09-26T16:23:16.508Z,28.50
2018-09-26T16:25:45.139Z,28.90
2018-09-26T16:28:13.717Z,28.70
2018-09-26T16:30:42.283Z,28.90
2018-09-26T16:33:10.859Z,28.70
2018-09-26T16:35:39.566Z,29.20
2018-09-26T16:38:08.485Z,29.00
2018-09-26T16:40:37.128Z,29.30
2018-09-26T16:43:05.744Z,29.30
2018-09-26T16:45:35.168Z,29.40
2018-09-26T16:48:03.707Z,30.10
2018-09-26T16:50:32.308Z,29.70
2018-09-26T16:53:00.896Z,29.60
2018-09-26T16:55:29.583Z,29.80
2018-09-26T16:57:58.387Z,29.90
2018-09-26T17:00:26.973Z,30.00
2018-09-26T17:05:48.409Z,30.10
2018-09-26T17:08:17.013Z,30.00
2018-09-26T17:10:45.901Z,30.00
2018-09-26T17:13:14.493Z,30.40
2018-09-26T17:15:43.889Z,30.50
2018-09-26T17:18:12.723Z,31.10
2018-09-26T17:20:41.327Z,31.20
2018-09-26T17:23:09.844Z,31.30
2018-09-26T17:25:38.593Z,32.10
2018-09-26T17:28:07.294Z,32.20
2018-09-26T17:30:35.815Z,33.10
2018-09-26T17:33:04.378Z,32.30
2018-09-26T17:35:33.623Z,32.20
2018-09-26T17:38:02.333Z,32.20
2018-09-26T17:40:30.889Z,32.10
2018-09-26T17:42:59.524Z,32.20
2018-09-26T17:45:28.217Z,32.10
2018-09-26T17:47:56.709Z,32.60
2018-09-26T17:50:25.236Z,32.80
2018-09-26T17:52:53.799Z,33.10
2018-09-26T17:55:22.397Z,33.00
2018-09-26T17:57:51.020Z,33.10
2018-09-26T18:00:19.639Z,33.10
2018-09-26T18:02:48.329Z,32.90
2018-09-26T18:05:16.922Z,32.90
2018-09-26T18:07:45.463Z,33.20
2018-09-26T18:10:14.137Z,33.70
2018-09-26T18:12:42.862Z,34.00
2018-09-26T18:15:12.266Z,33.70
2018-09-26T18:17:40.762Z,33.60
2018-09-26T18:20:09.965Z,33.70
2018-09-26T18:22:38.584Z,33.60
2018-09-26T18:25:07.393Z,33.80
2018-09-26T18:27:36.001Z,33.80
2018-09-26T18:30:05.287Z,33.70
2018-09-26T18:32:33.832Z,33.70
2018-09-26T18:35:02.383Z,33.70
2018-09-26T18:37:31.151Z,33.90
2018-09-26T18:39:59.746Z,33.70
2018-09-26T18:42:28.272Z,33.80
2018-09-26T18:44:57.141Z,33.40
2018-09-26T18:47:25.779Z,33.50
2018-09-26T18:49:54.469Z,33.20
2018-09-26T18:52:23.311Z,33.20
2018-09-26T18:54:51.996Z,33.20
2018-09-26T18:57:20.582Z,33.50
2018-09-26T18:59:49.160Z,33.50
2018-09-26T19:02:17.665Z,33.70
2018-09-26T19:04:46.415Z,33.70
2018-09-26T19:07:14.939Z,34.30
2018-09-26T19:09:43.489Z,34.50
2018-09-26T19:12:12.122Z,34.70
2018-09-26T19:14:40.672Z,34.30
2018-09-26T19:17:09.212Z,34.70
2018-09-26T19:19:37.923Z,34.70
2018-09-26T19:22:06.927Z,34.80
2018-09-26T19:24:35.504Z,35.00
2018-09-26T19:27:04.067Z,35.10
2018-09-26T19:29:32.558Z,35.60
2018-09-26T19:32:01.192Z,35.80
2018-09-26T19:34:29.833Z,35.80
2018-09-26T19:36:58.398Z,35.90
2018-09-26T19:39:27.004Z,35.70
2018-09-26T19:41:55.566Z,36.30
2018-09-26T19:44:24.245Z,36.40
2018-09-26T19:46:52.856Z,35.60
2018-09-26T19:49:21.582Z,35.60
2018-09-26T19:51:50.274Z,35.50
2018-09-26T19:54:18.845Z,35.40
2018-09-26T19:56:47.435Z,35.50
2018-09-26T19:59:15.962Z,35.50
2018-09-26T20:01:44.724Z,35.80
2018-09-26T20:04:13.749Z,35.80
2018-09-26T20:06:42.322Z,35.40
2018-09-26T20:09:12.388Z,35.60
2018-09-26T20:11:41.402Z,36.90
2018-09-26T20:14:10.232Z,36.10
2018-09-26T20:16:39.205Z,36.10
2018-09-26T20:19:09.215Z,36.00
2018-09-26T20:21:37.764Z,36.10
2018-09-26T20:24:06.532Z,35.70
2018-09-26T20:26:35.042Z,36.00
2018-09-26T20:29:03.676Z,36.00
2018-09-26T20:31:34.904Z,36.30
2018-09-26T20:34:03.493Z,36.60
2018-09-26T20:36:32.097Z,36.60
2018-09-26T20:39:00.736Z,36.50
2018-09-26T20:41:30.021Z,36.90
2018-09-26T20:43:58.544Z,36.70
2018-09-26T20:46:27.395Z,36.60
2018-09-26T20:48:55.931Z,36.60
2018-09-26T20:51:25.055Z,36.60
2018-09-26T20:53:53.640Z,36.70
2018-09-26T20:56:22.132Z,37.70
2018-09-26T20:58:50.678Z,36.70
2018-09-26T21:01:19.648Z,37.20
2018-09-26T21:03:48.717Z,36.70
2018-09-26T21:06:17.992Z,37.70
2018-09-26T21:08:47.455Z,37.40
2018-09-26T21:11:16.002Z,37.50
2018-09-26T21:13:44.555Z,37.60
2018-09-26T21:16:13.465Z,38.00
2018-09-26T21:18:42.367Z,38.00
2018-09-26T21:21:10.962Z,37.60
2018-09-26T21:23:39.584Z,37.80
2018-09-26T21:26:08.501Z,38.00
2018-09-26T21:28:37.734Z,38.50
2018-09-26T21:31:06.445Z,39.00
2018-09-26T21:33:35.144Z,39.10
2018-09-26T21:36:03.756Z,38.80
2018-09-26T21:38:32.327Z,38.60
2018-09-26T21:41:01.839Z,38.30
2018-09-26T21:43:30.383Z,38.30
2018-09-26T21:45:58.966Z,38.70
2018-09-26T21:48:27.489Z,39.10
2018-09-26T21:50:56.044Z,38.90
2018-09-26T21:53:25.351Z,39.00
2018-09-26T21:55:53.937Z,39.20
2018-09-26T21:58:22.515Z,39.10
2018-09-26T22:00:56.521Z,39.50
2018-09-26T22:03:25.913Z,39.70
2018-09-26T22:05:54.698Z,39.70
2018-09-26T22:08:23.526Z,40.00
2018-09-26T22:10:53.520Z,40.20
2018-09-26T22:13:22.788Z,40.20
2018-09-26T22:15:51.808Z,40.50
2018-09-26T22:18:21.368Z,40.40
2018-09-26T22:20:50.136Z,40.60
2018-09-26T22:23:18.959Z,40.60
2018-09-26T22:25:47.832Z,40.60
2018-09-26T22:28:16.736Z,40.60
2018-09-26T22:30:45.511Z,40.50
2018-09-26T22:33:14.876Z,40.90
2018-09-26T22:35:43.684Z,40.40
2018-09-26T22:38:13.344Z,40.20
2018-09-26T22:40:42.146Z,40.00
2018-09-26T22:43:10.970Z,39.90
2018-09-26T22:45:40.229Z,39.90
2018-09-26T22:48:09.177Z,39.90
2018-09-26T22:50:37.850Z,39.70
2018-09-26T22:53:07.014Z,39.90
2018-09-26T22:55:35.784Z,39.70
2018-09-26T22:58:04.766Z,39.90
2018-09-26T23:00:33.412Z,40.00
2018-09-26T23:03:02.190Z,39.90
2018-09-26T23:05:31.274Z,40.50
2018-09-26T23:08:00.094Z,39.90
2018-09-26T23:10:30.052Z,39.80
2018-09-26T23:12:58.893Z,39.20
2018-09-26T23:15:27.642Z,40.00
2018-09-26T23:17:56.488Z,39.50
2018-09-26T23:20:26.042Z,39.50
2018-09-26T23:22:54.777Z,39.60
2018-09-26T23:25:23.523Z,39.30
2018-09-26T23:27:53.092Z,39.10
2018-09-26T23:30:22.732Z,39.70
2018-09-26T23:32:51.470Z,40.00
2018-09-26T23:35:20.914Z,40.90
2018-09-26T23:37:50.714Z,40.60
2018-09-26T23:40:20.239Z,40.60
2018-09-26T23:42:49.872Z,40.40
2018-09-26T23:45:18.542Z,40.50
2018-09-26T23:47:47.216Z,40.50
2018-09-26T23:50:15.841Z,40.30
2018-09-26T23:52:44.424Z,40.40
2018-09-26T23:55:14.098Z,40.40
2018-09-26T23:57:42.973Z,40.80
